Time;durP1;ratioP1;P1;durP2;ratioP2;P2;SDS_P1;SDS_P2;PMS_P1;PMS_P2;Temp;Humidity;BMP_temperature;BMP_pressure;BME280_temperature;BME280_humidity;BME280_pressure;Samples;Min_cycle;Max_cycle;Signal;HPM_P1;HPM_P2
2021/04/17 00:01:40;;;;;;;5.90;3.50;;;;;;;9.91;27.47;102160.81;3618249;39;20035;-69
2021/04/17 00:04:09;;;;;;;4.57;3.03;;;;;;;9.90;27.71;102161.78;3608732;39;20027;-69
2021/04/17 00:06:36;;;;;;;5.07;2.85;;;;;;;9.89;27.44;102158.16;3608911;39;20039;-69
2021/04/17 00:09:07;;;;;;;4.45;2.88;;;;;;;9.88;27.56;102161.84;3618150;39;20409;-69
2021/04/17 00:11:35;;;;;;;5.97;3.08;;;;;;;9.86;27.64;102162.94;3618210;39;20035;-69
2021/04/17 00:14:04;;;;;;;4.95;3.10;;;;;;;9.84;27.66;102162.16;3617464;39;20039;-72
2021/04/17 00:16:32;;;;;;;5.32;2.97;;;;;;;9.82;27.59;102155.91;3608390;39;20087;-72
2021/04/17 00:18:59;;;;;;;5.07;3.28;;;;;;;9.79;27.67;102157.00;3605406;39;20664;-72
2021/04/17 00:21:27;;;;;;;5.57;3.10;;;;;;;9.76;27.74;102154.44;3614187;39;20054;-72
2021/04/17 00:23:54;;;;;;;5.32;3.30;;;;;;;9.74;27.60;102161.84;3611544;39;20108;-73
2021/04/17 00:26:23;;;;;;;5.35;3.08;;;;;;;9.71;27.83;102160.19;3616586;39;20312;-73
2021/04/17 00:28:51;;;;;;;5.45;3.45;;;;;;;9.67;27.77;102155.88;3607524;39;21781;-73
2021/04/17 00:31:19;;;;;;;5.25;3.13;;;;;;;9.63;27.96;102147.97;3617053;39;20068;-73
2021/04/17 00:33:46;;;;;;;5.75;3.13;;;;;;;9.61;27.86;102152.63;3607536;39;20618;-73
2021/04/17 00:36:13;;;;;;;5.13;3.10;;;;;;;9.56;28.01;102152.03;3613383;39;20051;-72
2021/04/17 00:38:41;;;;;;;4.75;2.53;;;;;;;9.54;27.91;102149.41;3614660;39;20059;-72
2021/04/17 00:41:08;;;;;;;4.78;3.05;;;;;;;9.51;28.01;102144.13;3612259;39;20055;-72
2021/04/17 00:43:36;;;;;;;4.80;2.97;;;;;;;9.50;28.08;102149.69;3616751;39;20124;-72
2021/04/17 00:46:03;;;;;;;5.00;2.92;;;;;;;9.46;28.07;102145.38;3609789;39;20051;-72
2021/04/17 00:48:31;;;;;;;4.47;2.88;;;;;;;9.44;28.13;102152.78;3617393;39;20058;-72
2021/04/17 00:50:59;;;;;;;6.00;2.80;;;;;;;9.43;28.13;102148.31;3618237;39;20047;-72
2021/04/17 00:53:27;;;;;;;5.45;3.10;;;;;;;9.40;28.46;102147.50;3609112;39;20059;-72
2021/04/17 00:55:56;;;;;;;4.50;2.67;;;;;;;9.39;28.27;102151.22;3604424;39;20318;-72
2021/04/17 00:58:24;;;;;;;5.60;3.25;;;;;;;9.36;28.20;102143.22;3616426;39;20051;-72
2021/04/17 01:00:52;;;;;;;5.22;2.92;;;;;;;9.35;28.30;102144.19;3615185;39;20047;-72
2021/04/17 01:03:25;;;;;;;4.45;2.80;;;;;;;9.33;28.29;102140.66;3618065;39;20047;-72
2021/04/17 01:05:56;;;;;;;4.70;2.70;;;;;;;9.30;28.49;102140.84;3618728;39;20058;-72
2021/04/17 01:08:33;;;;;;;4.75;3.03;;;;;;;9.29;28.63;102144.56;3612412;39;20416;-72
2021/04/17 01:11:06;;;;;;;4.50;2.78;;;;;;;9.27;28.66;102143.78;3601977;39;20052;-72
2021/04/17 01:13:34;;;;;;;4.60;2.40;;;;;;;9.23;28.46;102146.75;3596919;39;20080;-72
2021/04/17 01:16:04;;;;;;;5.97;3.30;;;;;;;9.22;28.66;102143.16;3609325;39;20047;-72
2021/04/17 01:18:34;;;;;;;4.90;3.05;;;;;;;9.20;28.48;102146.97;3614477;39;20430;-73
2021/04/17 01:21:04;;;;;;;5.40;2.95;;;;;;;9.18;28.60;102144.31;3617244;39;20053;-72
2021/04/17 01:23:36;;;;;;;4.75;2.95;;;;;;;9.17;28.71;102139.84;3613184;39;20047;-72
2021/04/17 01:26:07;;;;;;;4.68;2.83;;;;;;;9.15;28.84;102139.03;3616665;39;20151;-72
2021/04/17 01:28:37;;;;;;;5.18;3.28;;;;;;;9.13;28.47;102142.84;3618649;39;20133;-73
2021/04/17 01:31:07;;;;;;;5.70;3.17;;;;;;;9.10;28.79;102143.91;3608397;39;20487;-72
2021/04/17 01:33:39;;;;;;;4.45;2.83;;;;;;;9.08;28.71;102148.56;3616597;39;21412;-72
2021/04/17 01:36:07;;;;;;;5.35;3.00;;;;;;;9.05;28.79;102146.06;3615675;39;20031;-72
2021/04/17 01:38:39;;;;;;;5.90;2.83;;;;;;;9.03;28.79;102144.38;3613537;39;20032;-73
2021/04/17 01:41:11;;;;;;;5.45;3.03;;;;;;;9.01;28.89;102144.44;3618820;39;20084;-72
2021/04/17 01:43:38;;;;;;;5.47;2.78;;;;;;;8.96;28.77;102144.75;3615415;39;20094;-72
2021/04/17 01:46:08;;;;;;;4.80;3.28;;;;;;;8.96;28.91;102141.13;3608504;39;20136;-73
2021/04/17 01:48:37;;;;;;;4.65;2.78;;;;;;;8.92;29.24;102147.72;3616652;39;20391;-73
2021/04/17 01:51:07;;;;;;;6.05;3.28;;;;;;;8.90;28.87;102142.34;3618320;39;20027;-72
2021/04/17 01:53:38;;;;;;;5.18;3.30;;;;;;;8.88;28.88;102144.31;3611544;39;20063;-73
2021/04/17 01:56:09;;;;;;;5.28;2.78;;;;;;;8.84;28.90;102142.72;3614095;39;20051;-72
2021/04/17 01:58:39;;;;;;;5.53;2.90;;;;;;;8.82;29.08;102138.31;3605981;39;20051;-73
2021/04/17 02:01:06;;;;;;;5.47;3.08;;;;;;;8.78;29.12;102139.47;3616889;39;20313;-73
2021/04/17 02:03:34;;;;;;;5.28;2.83;;;;;;;8.76;29.04;102142.28;3601005;39;20035;-72
2021/04/17 02:06:01;;;;;;;5.40;2.80;;;;;;;8.75;29.05;102145.09;3613889;39;20112;-72
2021/04/17 02:08:29;;;;;;;5.70;2.90;;;;;;;8.71;29.25;102138.97;3616890;39;20052;-72
2021/04/17 02:10:57;;;;;;;4.82;2.92;;;;;;;8.70;29.20;102139.06;3615043;39;20140;-73
2021/04/17 02:13:25;;;;;;;5.75;2.70;;;;;;;8.70;29.08;102139.94;3615754;39;20054;-72
2021/04/17 02:15:52;;;;;;;5.13;2.85;;;;;;;8.66;29.17;102146.50;3609220;39;20073;-72
2021/04/17 02:18:24;;;;;;;4.43;2.22;;;;;;;8.66;29.46;102140.19;3614395;39;20048;-73
2021/04/17 02:20:58;;;;;;;4.60;2.73;;;;;;;8.60;29.99;102131.41;3615902;39;20058;-72
2021/04/17 02:23:28;;;;;;;5.28;2.80;;;;;;;8.59;29.30;102139.66;3606354;39;20281;-73
2021/04/17 02:25:57;;;;;;;5.43;3.05;;;;;;;8.58;29.47;102138.78;3617160;39;20060;-72
2021/04/17 02:28:26;;;;;;;4.57;2.58;;;;;;;8.56;29.42;102126.19;3608335;39;20054;-72
2021/04/17 02:30:54;;;;;;;4.60;2.63;;;;;;;8.53;29.32;102135.44;3615744;39;20047;-73
2021/04/17 02:33:21;;;;;;;4.53;2.55;;;;;;;8.52;29.14;102133.69;3618726;39;20414;-73
2021/04/17 02:35:49;;;;;;;4.57;2.50;;;;;;;8.52;29.58;102127.34;3616548;39;20047;-72
2021/04/17 02:38:18;;;;;;;5.03;2.80;;;;;;;8.53;29.62;102131.84;3619088;39;20115;-72
2021/04/17 02:40:45;;;;;;;5.28;2.85;;;;;;;8.51;29.37;102131.03;3614473;39;20070;-72
2021/04/17 02:43:12;;;;;;;3.97;2.50;;;;;;;8.50;29.35;102132.88;3613896;39;20047;-72
2021/04/17 02:45:40;;;;;;;4.32;2.58;;;;;;;8.51;29.55;102128.31;3613870;39;20136;-72
2021/04/17 02:48:08;;;;;;;4.20;2.70;;;;;;;8.50;29.51;102129.28;3617300;39;20069;-72
2021/04/17 02:50:35;;;;;;;4.35;2.47;;;;;;;8.50;29.44;102134.72;3613224;39;20049;-72
2021/04/17 02:53:03;;;;;;;4.63;2.55;;;;;;;8.50;29.61;102130.16;3617735;39;20100;-72
2021/04/17 02:55:30;;;;;;;4.35;2.90;;;;;;;8.49;29.63;102127.50;3618264;39;20708;-72
2021/04/17 02:57:57;;;;;;;4.60;2.55;;;;;;;8.49;29.64;102125.66;3618881;39;20051;-72
2021/04/17 03:00:25;;;;;;;6.38;2.90;;;;;;;8.49;29.32;102130.25;3616084;39;20393;-72
2021/04/17 03:02:53;;;;;;;4.90;2.75;;;;;;;8.49;29.57;102130.25;3614858;39;20460;-73
2021/04/17 03:05:21;;;;;;;4.80;2.65;;;;;;;8.46;29.21;102123.13;3611801;39;20173;-72
2021/04/17 03:07:48;;;;;;;5.68;2.65;;;;;;;8.45;29.34;102126.84;3608651;39;20337;-72
2021/04/17 03:10:16;;;;;;;4.90;2.65;;;;;;;8.45;29.81;102131.41;3612737;39;20043;-72
2021/04/17 03:12:43;;;;;;;5.05;2.72;;;;;;;8.43;29.59;102128.75;3610663;39;20043;-72
2021/04/17 03:15:11;;;;;;;4.63;2.50;;;;;;;8.43;29.47;102125.13;3608640;39;20032;-72
2021/04/17 03:17:39;;;;;;;7.32;3.47;;;;;;;8.42;29.83;102126.06;3608506;39;20028;-72
2021/04/17 03:20:09;;;;;;;5.13;2.92;;;;;;;8.42;29.84;102129.69;3613648;39;20054;-72
2021/04/17 03:22:37;;;;;;;4.25;2.67;;;;;;;8.41;29.56;102132.50;3611758;39;20062;-72
2021/04/17 03:25:07;;;;;;;5.88;2.80;;;;;;;8.40;29.25;102120.72;3616327;39;20136;-72
2021/04/17 03:27:35;;;;;;;3.20;1.90;;;;;;;8.39;29.80;102129.88;3614166;39;20054;-72
2021/04/17 03:30:03;;;;;;;4.35;2.40;;;;;;;8.38;29.84;102124.50;3615045;39;20127;-72
2021/04/17 03:32:31;;;;;;;4.78;2.60;;;;;;;8.37;29.89;102126.34;3608452;39;20049;-72
2021/04/17 03:34:58;;;;;;;4.90;2.42;;;;;;;8.37;29.68;102130.94;3607559;39;20051;-72
2021/04/17 03:37:27;;;;;;;4.30;2.40;;;;;;;8.37;29.74;102129.09;3610864;39;20051;-72
2021/04/17 03:39:54;;;;;;;4.03;2.40;;;;;;;8.35;29.62;102141.03;3612708;39;20054;-72
2021/04/17 03:42:21;;;;;;;5.90;2.63;;;;;;;8.33;29.64;102140.22;3614168;39;20087;-73
2021/04/17 03:44:48;;;;;;;5.72;3.15;;;;;;;8.30;29.71;102144.03;3614288;39;20040;-73
2021/04/17 03:47:15;;;;;;;3.90;2.38;;;;;;;8.29;29.81;102138.66;3608190;39;20051;-72
2021/04/17 03:49:43;;;;;;;5.25;2.97;;;;;;;8.24;29.82;102138.91;3610185;39;20039;-72
2021/04/17 03:52:10;;;;;;;5.25;2.50;;;;;;;8.21;29.59;102136.38;3602619;39;20051;-72
2021/04/17 03:54:38;;;;;;;4.97;2.78;;;;;;;8.18;30.03;102136.53;3609750;39;20051;-73
2021/04/17 03:57:08;;;;;;;4.63;2.80;;;;;;;8.14;29.90;102144.03;3600699;39;20059;-73
2021/04/17 03:59:36;;;;;;;6.57;2.90;;;;;;;8.09;30.06;102142.50;3612204;39;20033;-72
2021/04/17 04:02:03;;;;;;;5.40;2.90;;;;;;;8.05;30.09;102139.06;3614511;39;20035;-72
2021/04/17 04:04:31;;;;;;;4.78;2.75;;;;;;;8.01;29.96;102148.38;3612606;39;20051;-73
2021/04/17 04:06:58;;;;;;;4.47;2.85;;;;;;;7.98;30.14;102153.13;3613189;39;20523;-72
2021/04/17 04:09:25;;;;;;;4.53;3.08;;;;;;;7.93;30.27;102150.63;3615665;39;20082;-72
2021/04/17 04:11:54;;;;;;;5.15;2.90;;;;;;;7.90;30.03;102156.25;3613772;39;20390;-73
2021/04/17 04:14:21;;;;;;;4.82;2.80;;;;;;;7.86;30.11;102144.66;3637755;22;20043;-70
2021/04/17 04:16:49;;;;;;;4.90;2.67;;;;;;;7.83;30.12;102152.97;3588973;40;20117;-70
2021/04/17 04:19:16;;;;;;;6.15;2.63;;;;;;;7.81;30.52;102157.66;3594759;40;20474;-70
2021/04/17 04:21:44;;;;;;;6.47;2.65;;;;;;;7.80;30.33;102164.06;3598527;39;20055;-70
2021/04/17 04:24:11;;;;;;;5.13;2.88;;;;;;;7.80;30.62;102166.78;3610529;39;20481;-70
2021/04/17 04:26:42;;;;;;;6.25;2.85;;;;;;;7.79;30.52;102166.84;3600626;40;20043;-70
2021/04/17 04:29:10;;;;;;;5.10;2.92;;;;;;;7.80;30.33;102174.97;3600339;40;20051;-71
2021/04/17 04:31:38;;;;;;;4.50;2.55;;;;;;;7.79;30.53;102170.47;3606414;39;20061;-70
2021/04/17 04:34:05;;;;;;;5.40;2.50;;;;;;;7.78;30.55;102163.25;3610194;39;20043;-71
2021/04/17 04:36:33;;;;;;;5.60;2.60;;;;;;;7.76;30.41;102165.16;3610268;39;20066;-70
2021/04/17 04:39:00;;;;;;;4.32;2.53;;;;;;;7.76;30.68;102164.28;3610614;39;20059;-71
2021/04/17 04:41:30;;;;;;;5.93;2.40;;;;;;;7.76;30.62;102172.47;3610347;39;20117;-70
2021/04/17 04:43:58;;;;;;;6.20;2.30;;;;;;;7.76;30.61;102180.63;3602896;39;20215;-71
2021/04/17 04:46:26;;;;;;;5.07;2.53;;;;;;;7.75;30.61;102174.31;3600546;40;20047;-70
2021/04/17 04:48:53;;;;;;;4.82;2.90;;;;;;;7.75;30.90;102178.88;3600688;40;20055;-70
2021/04/17 04:51:20;;;;;;;4.68;2.40;;;;;;;7.75;30.83;102178.88;3600446;40;20028;-72
2021/04/17 04:53:52;;;;;;;4.85;2.60;;;;;;;7.75;30.81;102173.41;3607327;39;20032;-71
2021/04/17 04:56:19;;;;;;;4.30;2.40;;;;;;;7.74;30.96;102183.44;3610270;39;20059;-70
2021/04/17 04:58:51;;;;;;;5.40;2.60;;;;;;;7.73;31.16;102187.16;3610265;39;20113;-71
2021/04/17 05:01:19;;;;;;;4.95;2.70;;;;;;;7.74;30.70;102186.16;3610650;39;20399;-70
2021/04/17 05:04:07;;;;;;;4.80;2.60;;;;;;;7.74;30.91;102177.09;3574484;40;20029;-70
2021/04/17 05:06:34;;;;;;;4.93;2.47;;;;;;;7.74;31.00;102179.81;3597489;40;20129;-71
2021/04/17 05:09:01;;;;;;;4.85;2.63;;;;;;;7.74;30.83;102188.00;3599969;40;20149;-71
2021/04/17 05:11:32;;;;;;;4.80;2.58;;;;;;;7.74;30.98;102180.72;3608679;39;20031;-70
2021/04/17 05:13:59;;;;;;;4.80;2.45;;;;;;;7.74;30.90;102186.16;3610481;39;20034;-71
2021/04/17 05:16:26;;;;;;;6.18;2.65;;;;;;;7.75;31.11;102181.59;3610140;39;20035;-71
2021/04/17 05:18:54;;;;;;;4.82;2.50;;;;;;;7.76;30.98;102183.34;3593893;40;20072;-70
2021/04/17 05:21:22;;;;;;;5.00;2.60;;;;;;;7.77;31.13;102183.28;3600048;40;20048;-70
2021/04/17 05:23:59;;;;;;;4.22;2.65;;;;;;;7.77;31.01;102193.28;3600213;40;20029;-70
2021/04/17 05:26:27;;;;;;;5.15;2.80;;;;;;;7.79;31.73;102180.47;3599757;40;20056;-71
2021/04/17 05:28:54;;;;;;;4.95;2.70;;;;;;;7.81;31.54;102184.00;3599763;39;20430;-71
2021/04/17 05:31:21;;;;;;;5.05;2.72;;;;;;;7.82;31.26;102185.75;3605205;39;20028;-70
2021/04/17 05:33:49;;;;;;;6.50;3.20;;;;;;;7.83;31.35;102177.50;3600279;39;20412;-71
2021/04/17 05:36:16;;;;;;;7.03;3.17;;;;;;;7.84;31.48;102184.72;3610204;39;20068;-71
2021/04/17 05:38:44;;;;;;;4.50;2.53;;;;;;;7.87;31.75;102183.66;3609977;39;20324;-71
2021/04/17 05:41:11;;;;;;;4.55;3.10;;;;;;;7.87;31.63;102189.13;3610391;39;20323;-71
2021/04/17 05:43:39;;;;;;;5.90;2.53;;;;;;;7.87;31.19;102187.28;3610851;39;20035;-72
2021/04/17 05:46:06;;;;;;;6.50;2.90;;;;;;;7.87;31.68;102186.41;3587828;40;20043;-70
2021/04/17 05:48:33;;;;;;;5.25;3.15;;;;;;;7.87;31.58;102200.91;3588043;40;20048;-70
2021/04/17 05:51:01;;;;;;;6.10;3.10;;;;;;;7.86;31.63;102193.69;3605579;39;20089;-70
2021/04/17 05:53:28;;;;;;;5.32;2.70;;;;;;;7.85;31.88;102189.19;3610000;39;20288;-70
2021/04/17 05:55:56;;;;;;;4.13;2.55;;;;;;;7.87;31.78;102189.13;3610354;39;20031;-70
2021/04/17 05:58:23;;;;;;;5.60;2.90;;;;;;;7.85;31.59;102188.31;3607386;39;20077;-71
2021/04/17 06:00:50;;;;;;;5.95;3.03;;;;;;;7.84;31.84;102190.16;3599562;40;20391;-70
2021/04/17 06:03:17;;;;;;;5.43;2.85;;;;;;;7.85;31.75;102189.19;3604284;39;20038;-71
2021/04/17 06:05:45;;;;;;;4.95;2.70;;;;;;;7.86;31.62;102185.50;3605651;39;20204;-70
2021/04/17 06:08:12;;;;;;;5.10;2.72;;;;;;;7.88;32.03;102185.44;3601548;39;20048;-70
2021/04/17 06:10:40;;;;;;;5.53;2.72;;;;;;;7.89;31.79;102184.47;3599821;40;20051;-70
2021/04/17 06:13:07;;;;;;;5.43;3.03;;;;;;;7.92;32.12;102187.00;3599578;40;20310;-70
2021/04/17 06:15:34;;;;;;;4.18;2.45;;;;;;;7.93;32.05;102185.19;3599600;40;20128;-70
2021/04/17 06:18:02;;;;;;;4.85;2.72;;;;;;;7.96;32.07;102185.03;3599847;40;20036;-70
2021/04/17 06:20:30;;;;;;;6.35;2.92;;;;;;;7.98;32.16;102180.38;3590101;40;20113;-71
2021/04/17 06:22:57;;;;;;;5.18;2.70;;;;;;;7.99;32.10;102180.25;3602772;39;20294;-70
2021/04/17 06:25:25;;;;;;;5.78;2.88;;;;;;;8.03;32.31;102183.72;3610319;39;20302;-70
2021/04/17 06:27:52;;;;;;;5.28;2.97;;;;;;;8.05;32.24;102190.84;3609570;39;20039;-71
2021/04/17 06:30:20;;;;;;;5.05;3.00;;;;;;;8.10;32.19;102185.13;3600698;39;20040;-70
2021/04/17 06:32:49;;;;;;;5.15;2.85;;;;;;;8.13;32.43;102188.59;3599487;40;20048;-70
2021/04/17 06:35:17;;;;;;;6.03;3.17;;;;;;;8.19;32.54;102185.50;3599930;40;20375;-70
2021/04/17 06:37:44;;;;;;;5.53;2.85;;;;;;;8.25;32.85;102187.88;3599859;40;20042;-69
2021/04/17 06:40:12;;;;;;;6.28;3.03;;;;;;;8.32;32.49;102184.81;3598973;39;20038;-70
2021/04/17 06:42:42;;;;;;;5.60;3.05;;;;;;;8.39;32.49;102186.25;3599268;40;20028;-70
2021/04/17 06:45:12;;;;;;;5.53;3.33;;;;;;;8.44;32.45;102189.63;3599320;40;20048;-70
2021/04/17 06:47:40;;;;;;;6.10;3.10;;;;;;;8.48;32.37;102186.63;3609059;39;20386;-70
2021/04/17 06:50:09;;;;;;;7.47;2.95;;;;;;;8.52;32.41;102184.63;3609151;39;20036;-70
2021/04/17 06:52:38;;;;;;;5.22;3.10;;;;;;;8.59;32.43;102184.19;3609560;39;20047;-70
2021/04/17 06:55:06;;;;;;;4.70;2.92;;;;;;;8.67;32.33;102182.84;3609367;39;20038;-70
2021/04/17 06:57:35;;;;;;;6.20;3.50;;;;;;;8.73;32.47;102182.50;3591613;40;20383;-70
2021/04/17 07:00:05;;;;;;;5.85;2.90;;;;;;;8.83;32.14;102183.72;3582090;40;20299;-70
2021/04/17 07:02:32;;;;;;;5.97;2.67;;;;;;;8.89;32.44;102184.25;3599300;40;20028;-70
2021/04/17 07:05:00;;;;;;;4.97;2.90;;;;;;;9.01;32.30;102188.13;3589729;40;20388;-70
2021/04/17 07:07:30;;;;;;;6.28;3.47;;;;;;;9.10;32.32;102184.84;3599665;40;20048;-70
2021/04/17 07:09:58;;;;;;;4.30;2.47;;;;;;;9.19;32.26;102177.97;3599249;40;20032;-70
2021/04/17 07:12:25;;;;;;;5.07;2.50;;;;;;;9.30;32.07;102170.03;3598991;40;20043;-70
2021/04/17 07:14:53;;;;;;;6.03;2.80;;;;;;;9.40;31.88;102174.81;3599500;40;20239;-69
2021/04/17 07:17:22;;;;;;;5.03;2.60;;;;;;;9.53;32.00;102174.97;3599228;40;20358;-71
2021/04/17 07:20:00;;;;;;;5.28;2.95;;;;;;;9.69;31.80;102183.13;3589556;40;20117;-70
2021/04/17 07:22:30;;;;;;;4.60;2.67;;;;;;;9.76;31.87;102192.72;3598706;39;20494;-70
2021/04/17 07:25:15;;;;;;;6.03;3.20;;;;;;;9.86;31.36;102182.09;3609000;39;20043;-70
2021/04/17 07:27:44;;;;;;;6.05;3.38;;;;;;;9.97;31.67;102182.28;3599949;39;20032;-71
2021/04/17 07:30:29;;;;;;;4.72;2.72;;;;;;;10.08;31.28;102177.91;3586708;40;20308;-70
2021/04/17 07:33:05;;;;;;;4.55;2.90;;;;;;;10.20;31.52;102189.94;3599627;39;20044;-70
2021/04/17 07:35:36;;;;;;;5.18;2.75;;;;;;;10.29;31.40;102183.84;3609241;39;20031;-71
2021/04/17 07:38:12;;;;;;;4.80;2.80;;;;;;;10.40;30.44;102177.69;3608919;39;20024;-71
2021/04/17 07:40:40;;;;;;;6.22;2.85;;;;;;;10.49;31.17;102177.09;3608931;39;20047;-70
2021/04/17 07:43:08;;;;;;;5.43;2.90;;;;;;;10.59;31.05;102177.38;3609016;39;20038;-71
2021/04/17 07:45:36;;;;;;;5.60;2.80;;;;;;;10.69;30.84;102181.28;3609526;39;20044;-70
2021/04/17 07:48:22;;;;;;;5.80;2.85;;;;;;;10.80;30.65;102179.56;3601567;39;20080;-69
2021/04/17 07:50:51;;;;;;;4.13;2.50;;;;;;;10.91;30.75;102176.16;3598209;40;20341;-68
2021/04/17 07:53:29;;;;;;;4.75;2.70;;;;;;;11.05;30.50;102169.72;3598490;39;20064;-69
2021/04/17 07:55:56;;;;;;;4.07;2.40;;;;;;;11.11;30.86;102169.34;3589726;39;20388;-69
2021/04/17 07:58:24;;;;;;;4.88;2.50;;;;;;;11.22;30.49;102162.13;3598305;39;20405;-68
2021/04/17 08:00:51;;;;;;;4.95;2.30;;;;;;;11.33;30.32;102169.63;3598443;39;20038;-68
2021/04/17 08:03:23;;;;;;;4.45;2.65;;;;;;;11.43;30.25;102165.28;3598341;40;20028;-68
2021/04/17 08:05:51;;;;;;;5.32;2.80;;;;;;;11.52;30.02;102156.41;3598076;39;20033;-68
2021/04/17 08:08:19;;;;;;;4.30;2.38;;;;;;;11.60;29.63;102162.22;3598038;40;20028;-68
2021/04/17 08:10:46;;;;;;;4.22;2.50;;;;;;;11.70;29.68;102158.81;3604255;39;20384;-68
2021/04/17 08:13:17;;;;;;;4.10;2.40;;;;;;;11.80;29.28;102163.53;3599369;39;20475;-69
2021/04/17 08:15:44;;;;;;;3.83;2.20;;;;;;;11.87;29.60;102162.13;3608244;39;20035;-68
2021/04/17 08:18:12;;;;;;;3.60;2.10;;;;;;;11.94;29.53;102155.25;3608309;39;20059;-69
2021/04/17 08:20:40;;;;;;;4.75;2.50;;;;;;;12.02;28.99;102151.94;3608126;39;20032;-68
2021/04/17 08:23:09;;;;;;;5.53;2.42;;;;;;;12.09;28.47;102149.66;3598996;39;20282;-70
2021/04/17 08:25:37;;;;;;;4.18;2.40;;;;;;;12.15;28.71;102146.47;3598948;39;20034;-68
2021/04/17 08:28:17;;;;;;;5.47;2.40;;;;;;;12.24;27.90;102149.41;3608408;39;20043;-68
2021/04/17 08:30:44;;;;;;;4.10;2.20;;;;;;;12.25;28.37;102151.19;3608041;39;20043;-68
2021/04/17 08:33:14;;;;;;;4.88;2.45;;;;;;;12.32;28.01;102143.38;3608136;39;20036;-68
2021/04/17 08:35:42;;;;;;;4.25;2.20;;;;;;;12.34;27.81;102138.66;3608140;39;20035;-68
2021/04/17 08:38:12;;;;;;;5.43;2.40;;;;;;;12.40;27.80;102138.19;3607675;39;20065;-68
2021/04/17 08:40:57;;;;;;;4.97;2.28;;;;;;;12.45;27.52;102141.47;3598601;39;20093;-68
2021/04/17 08:43:32;;;;;;;3.63;2.10;;;;;;;12.51;27.31;102151.13;3608035;39;20311;-70
2021/04/17 08:46:10;;;;;;;5.50;2.35;;;;;;;12.58;27.48;102146.94;3608169;39;20061;-68
2021/04/17 08:48:52;;;;;;;4.72;2.33;;;;;;;12.63;27.40;102139.22;3608124;39;20036;-68
2021/04/17 08:51:39;;;;;;;5.10;2.40;;;;;;;12.68;27.50;102139.75;3598791;39;20047;-68
2021/04/17 08:54:17;;;;;;;4.15;2.60;;;;;;;12.75;26.82;102141.94;3608019;39;20035;-68
2021/04/17 08:57:03;;;;;;;4.53;2.40;;;;;;;12.79;26.69;102135.19;3603665;39;20379;-69
2021/04/17 08:59:33;;;;;;;6.78;2.63;;;;;;;12.84;27.37;102136.75;3597592;40;20121;-70
2021/04/17 09:02:06;;;;;;;5.18;2.60;;;;;;;12.90;26.66;102131.66;3597895;39;20043;-69
2021/04/17 09:04:37;;;;;;;4.53;2.42;;;;;;;12.93;27.13;102130.56;3567347;40;20038;-71
2021/04/17 09:07:16;;;;;;;3.97;2.13;;;;;;;13.00;26.76;102131.88;3597744;40;20040;-67
2021/04/17 09:09:45;;;;;;;4.07;2.50;;;;;;;13.02;27.20;102130.72;3599433;40;20315;-69
2021/04/17 09:12:30;;;;;;;4.78;2.53;;;;;;;13.05;26.03;102132.38;3599458;40;20040;-70
2021/04/17 09:15:04;;;;;;;5.05;2.72;;;;;;;13.11;26.70;102138.28;3590399;40;20282;-70
2021/04/17 09:17:42;;;;;;;3.65;2.15;;;;;;;13.18;26.55;102123.06;3599719;40;20032;-69
2021/04/17 09:20:12;;;;;;;4.88;2.75;;;;;;;13.24;27.07;102134.59;3599641;40;20032;-69
2021/04/17 09:22:44;;;;;;;4.20;2.25;;;;;;;13.31;26.35;102133.13;3589996;40;20069;-69
2021/04/17 09:25:15;;;;;;;4.88;2.70;;;;;;;13.33;26.99;102129.25;3599946;40;20049;-69
2021/04/17 09:27:45;;;;;;;6.15;2.72;;;;;;;13.39;27.00;102122.41;3599465;40;20389;-70
2021/04/17 09:30:14;;;;;;;3.75;2.38;;;;;;;13.49;26.85;102120.69;3600112;40;20065;-69
2021/04/17 09:32:55;;;;;;;5.35;2.80;;;;;;;13.55;26.85;102128.44;3599736;40;20052;-69
2021/04/17 09:35:25;;;;;;;5.13;2.92;;;;;;;13.61;26.29;102119.69;3599507;40;20375;-69
2021/04/17 09:38:09;;;;;;;4.03;2.40;;;;;;;13.70;25.42;102121.72;3590620;40;20066;-69
2021/04/17 09:40:41;;;;;;;3.92;1.90;;;;;;;13.74;25.68;102117.75;3577202;40;20313;-69
2021/04/17 09:43:25;;;;;;;4.05;2.03;;;;;;;13.83;25.85;102105.97;3577644;40;20118;-69
2021/04/17 09:45:53;;;;;;;5.40;2.63;;;;;;;13.89;26.13;102115.66;3569426;40;20036;-69
2021/04/17 09:48:25;;;;;;;5.22;2.45;;;;;;;13.97;25.92;102113.16;3577257;40;20041;-70
2021/04/17 09:50:56;;;;;;;4.15;2.50;;;;;;;14.01;25.35;102113.78;3577267;40;20127;-69
2021/04/17 09:53:29;;;;;;;4.38;2.67;;;;;;;14.06;25.53;102095.91;3577566;40;20033;-69
2021/04/17 09:56:01;;;;;;;4.55;2.30;;;;;;;14.08;24.70;102099.41;3577512;40;20041;-70
2021/04/17 09:58:32;;;;;;;4.60;2.40;;;;;;;14.12;25.12;102097.28;3583610;40;20047;-70
2021/04/17 10:01:14;;;;;;;4.28;2.72;;;;;;;14.10;22.58;102099.28;3579718;40;20342;-70
2021/04/17 10:03:43;;;;;;;4.80;2.30;;;;;;;14.09;24.31;102092.03;3587652;40;20037;-69
2021/04/17 10:06:25;;;;;;;5.03;2.10;;;;;;;14.06;23.91;102090.41;3587433;40;20040;-69
2021/04/17 10:09:01;;;;;;;4.65;2.38;;;;;;;14.00;24.54;102087.25;3587669;40;20041;-70
2021/04/17 10:11:39;;;;;;;4.95;2.20;;;;;;;13.96;23.81;102083.91;3587878;40;20071;-73
2021/04/17 10:14:07;;;;;;;4.35;1.92;;;;;;;13.90;24.70;102078.91;3609229;22;20051;-71
2021/04/17 10:16:42;;;;;;;3.63;2.00;;;;;;;13.86;24.50;102081.03;3595588;39;20043;-72
2021/04/17 10:19:12;;;;;;;4.60;2.20;;;;;;;13.82;24.65;102078.63;3603958;39;20425;-72
2021/04/17 10:21:41;;;;;;;4.13;2.13;;;;;;;13.77;24.35;102075.34;3605087;39;20047;-71
2021/04/17 10:24:21;;;;;;;3.97;2.10;;;;;;;13.77;23.60;102069.84;3603109;39;20426;-72
2021/04/17 10:27:13;;;;;;;3.67;1.92;;;;;;;13.67;22.61;102064.22;3607066;39;20046;-72
2021/04/17 10:29:45;;;;;;;3.25;2.00;;;;;;;13.68;23.56;102067.84;3602264;39;20137;-71
2021/04/17 10:32:15;;;;;;;4.45;2.30;;;;;;;13.62;23.71;102074.72;3603220;39;20032;-72
2021/04/17 10:34:45;;;;;;;4.57;2.47;;;;;;;13.57;23.97;102057.72;3599504;40;20051;-73
2021/04/17 10:37:17;;;;;;;4.05;2.38;;;;;;;13.52;23.48;102052.56;3597778;39;20144;-74
2021/04/17 10:40:00;;;;;;;4.32;2.20;;;;;;;13.44;23.24;102046.81;3605605;39;20399;-76
2021/04/17 10:42:47;;;;;;;3.08;1.77;;;;;;;13.39;23.22;102048.19;3594552;39;20055;-73
2021/04/17 10:45:17;;;;;;;4.55;1.90;;;;;;;13.31;23.80;102046.06;3605481;39;20043;-73
2021/04/17 10:47:55;;;;;;;4.63;2.25;;;;;;;13.26;24.31;102037.28;3607696;39;20051;-73
2021/04/17 10:50:25;;;;;;;3.63;2.00;;;;;;;13.22;24.08;102043.16;3607827;39;20076;-73
2021/04/17 10:52:59;;;;;;;3.78;2.17;;;;;;;13.20;23.75;102043.25;3608824;39;20054;-73
2021/04/17 10:55:34;;;;;;;3.55;2.30;;;;;;;13.16;23.53;102034.41;3608660;39;20056;-73
2021/04/17 10:58:03;;;;;;;4.85;2.20;;;;;;;13.13;24.16;102031.00;3599145;39;20309;-73
2021/04/17 11:00:33;;;;;;;3.78;2.20;;;;;;;13.11;24.29;102033.88;3608264;39;20044;-73
2021/04/17 11:03:01;;;;;;;5.15;2.60;;;;;;;13.08;24.25;102025.91;3606373;39;20067;-73
2021/04/17 11:05:30;;;;;;;5.45;2.60;;;;;;;13.09;24.05;102027.63;3598230;39;20137;-73
2021/04/17 11:08:03;;;;;;;5.70;2.60;;;;;;;13.09;23.94;102021.25;3599713;39;20051;-74
2021/04/17 11:10:35;;;;;;;4.80;2.60;;;;;;;13.10;23.65;102020.25;3589495;40;20064;-73
2021/04/17 11:13:05;;;;;;;5.32;2.60;;;;;;;13.08;24.21;102023.16;3590228;39;20056;-73
2021/04/17 11:15:37;;;;;;;4.22;2.63;;;;;;;13.09;24.25;102008.38;3599568;39;20043;-73
2021/04/17 11:18:18;;;;;;;5.75;2.85;;;;;;;13.11;23.91;102014.66;3608922;39;20047;-73
2021/04/17 11:20:51;;;;;;;6.07;2.80;;;;;;;13.09;24.37;102005.63;3607892;39;20128;-73
2021/04/17 11:23:30;;;;;;;4.55;2.80;;;;;;;13.10;23.88;102003.78;3605062;39;20355;-73
2021/04/17 11:25:57;;;;;;;4.30;2.75;;;;;;;13.10;24.39;102004.66;3598968;39;20057;-73
2021/04/17 11:28:26;;;;;;;4.88;3.00;;;;;;;13.13;24.41;102007.16;3599513;39;20089;-73
2021/04/17 11:30:54;;;;;;;4.90;2.85;;;;;;;13.15;24.30;101999.69;3607840;39;20052;-73
2021/04/17 11:33:22;;;;;;;4.47;3.10;;;;;;;13.17;24.35;102002.31;3608391;39;20047;-73
2021/04/17 11:35:51;;;;;;;5.82;2.90;;;;;;;13.21;24.47;101995.56;3608354;39;20076;-73
2021/04/17 11:38:18;;;;;;;5.93;3.15;;;;;;;13.21;24.23;102005.69;3599097;39;20079;-73
2021/04/17 11:40:47;;;;;;;3.95;3.22;;;;;;;13.21;23.83;101998.31;3607918;39;20210;-75
2021/04/17 11:43:15;;;;;;;4.32;2.72;;;;;;;13.25;24.52;101998.97;3608562;39;20052;-73
2021/04/17 11:45:43;;;;;;;4.05;2.63;;;;;;;13.28;24.42;101994.06;3598482;39;20054;-73